KMWO/MWO METAR and TAF weather

Enter ICAO airport designator
Station Type Date Time Source
KMWO METAR 2019/08/18 09:35 UTC NOAA

KMWO 180935Z AUTO 00000KT 1 1/4SM BR VV007 21/21 A2995 RMK AO2 VIS 1/2V4 LTG DSNT N T02080206


Station Type Date Time Source
KMWO Decoded METAR 2019/08/18 09:35 UTC NOAA

Station name not available
Aug 18, 2019 - 05:35 AM EDT / 2019.08.18 0935 UTC
Wind: Calm:0
Visibility: 1 1/4 mile(s):0
Sky conditions: obscured
Weather: mist; Lightning observed
Temperature: 69.4 F (20.8 C)
Dew Point: 69.1 F (20.6 C)
Relative Humidity: 98%
Pressure (altimeter): 29.95 in. Hg (1014 hPa)
ob: KMWO 180935Z AUTO 00000KT 1 1/4SM BR VV007 21/21 A2995 RMK AO2 VIS 1/2V4 LTG DSNT N T02080206
cycle: 9

Station Type Date Time Source
KMWO TAF UTC NOAA

Error!

Example: see airport list